Aviation Digital Data Service (ADDS)

Output produced by METARs form (0027 UTC 01 May 2016)
found at http://www.aviationweather.gov/adds/metars/
 
KROW 302351Z 06005KT 10SM FEW120 24/M04 A2972 RMK AO2 SLP020 T02391044 10250 20211 55010
KROW 302251Z 09005KT 10SM CLR 24/M04 A2972 RMK AO2 SLP015 T02391039
KROW 302151Z 00000KT 10SM FEW100 24/M03 A2973 RMK AO2 SLP019 T02391033
KROW 302051Z 13015KT 10SM FEW100 24/M03 A2975 RMK AO2 SLP025 T02441033 56018
KROW 301951Z 08007KT 10SM SCT100 23/M02 A2977 RMK AO2 SLP030 T02331022
KROW 301851Z 18007G14KT 070V220 10SM CLR 22/M02 A2979 RMK AO2 SLP036 T02221017
KROW 301751Z 24011KT 10SM FEW090 22/M01 A2981 RMK AO2 SLP045 T02221006 10222 20050 58016
KROW 301651Z 14007KT 10SM CLR 20/00 A2983 RMK AO2 SLP053 T02000000
KROW 301551Z 17008KT 10SM CLR 18/01 A2985 RMK AO2 SLP061 T01780006
KROW 301451Z 16006KT 10SM CLR 16/01 A2987 RMK AO2 SLP065 T01560006 51016
KROW 301351Z 17005KT 10SM CLR 14/01 A2985 RMK AO2 SLP062 T01390011
KROW 301251Z 16004KT 10SM CLR 08/00 A2983 RMK AO2 SLP057 T00830000
KROW 301151Z 14003KT 10SM CLR 08/00 A2981 RMK AO2 SLP051 T00780000 10139 20072 53006
KROW 301051Z 33004KT 10SM CLR 11/01 A2980 RMK AO2 SLP041 T01110011
KROW 300951Z 30008KT 10SM CLR 12/01 A2980 RMK AO2 SLP042 T01170006
KROW 300851Z 32006KT 10SM CLR 12/00 A2979 RMK AO2 SLP038 T01220000 58007
KROW 300751Z 33005KT 10SM CLR 13/00 A2982 RMK AO2 SLP047 T01280000
KROW 300651Z 35007KT 10SM CLR 14/M01 A2982 RMK AO2 SLP048 T01391006 402610128
KROW 300551Z 01006KT 10SM FEW100 14/M03 A2981 RMK AO2 SLP046 T01391028 10244 20139 51017
KROW 300451Z 01010KT 10SM FEW120 16/M03 A2981 RMK AO2 SLP044 T01561033
KROW 300351Z VRB05KT 10SM FEW120 18/M06 A2978 RMK AO2 SLP030 T01781056
KROW 300251Z 27010KT 10SM BKN120 19/M08 A2976 RMK AO2 SLP026 T01941083 53019
KROW 300151Z AUTO 27005KT 10SM CLR 20/M09 A2973 RMK AO2 SLP017 T02001089
KROW 300051Z AUTO 27014KT 10SM CLR 23/M09 A2971 RMK AO2 WSHFT 2347 SLP012 T02281089
KROW 302334Z 0100/0124 09008KT P6SM SCT080 BKN120 
     FM010300 05010KT P6SM SCT050 BKN080 
     FM010600 03020G30KT P6SM BKN040 BKN080 
     FM011200 36012G20KT 5SM BR OVC030 
     FM011800 02012KT P6SM VCSH BKN040 BKN070